Time;durP1;ratioP1;P1;durP2;ratioP2;P2;SDS_P1;SDS_P2;PMS_P1;PMS_P2;Temp;Humidity;BMP_temperature;BMP_pressure;BME280_temperature;BME280_humidity;BME280_pressure;Samples;Min_cycle;Max_cycle;Signal;HPM_P1;HPM_P2
2022/09/13 00:01:26;;;;;;;5.20;3.83;;;;;;;;;;5015364;28;20040;-59
2022/09/13 00:03:51;;;;;;;7.72;3.60;;;;;;;;;;5010942;28;20107;-59
2022/09/13 00:06:18;;;;;;;5.03;3.72;;;;;;;;;;5007017;28;20529;-59
2022/09/13 00:08:45;;;;;;;5.20;3.55;;;;;;;;;;5020635;28;20040;-59
2022/09/13 00:11:14;;;;;;;4.85;3.60;;;;;;;;;;5009039;28;20501;-59
2022/09/13 00:13:39;;;;;;;5.00;3.38;;;;;;;;;;5016595;28;20033;-59
2022/09/13 00:16:10;;;;;;;5.55;3.60;;;;;;;;;;5022380;28;20100;-59
2022/09/13 00:18:35;;;;;;;5.00;3.80;;;;;;;;;;5006538;28;20053;-59
2022/09/13 00:21:10;;;;;;;4.80;3.40;;;;;;;;;;5001953;28;20524;-59
2022/09/13 00:23:36;;;;;;;5.85;3.65;;;;;;;;;;5015477;28;20029;-59
2022/09/13 00:26:14;;;;;;;5.85;3.58;;;;;;;;;;5013929;28;20104;-59
2022/09/13 00:28:39;;;;;;;5.28;3.20;;;;;;;;;;5004110;28;20661;-59
2022/09/13 00:31:07;;;;;;;4.75;3.50;;;;;;;;;;5010625;28;20041;-59
2022/09/13 00:33:32;;;;;;;5.05;3.47;;;;;;;;;;5015308;28;20060;-64
2022/09/13 00:36:01;;;;;;;4.82;3.17;;;;;;;;;;5006080;28;20065;-59
2022/09/13 00:38:27;;;;;;;7.53;3.92;;;;;;;;;;5022026;28;20033;-60
2022/09/13 00:40:52;;;;;;;5.03;3.40;;;;;;;;;;5020491;28;20533;-60
2022/09/13 00:43:20;;;;;;;5.00;3.08;;;;;;;;;;5022634;28;20032;-61
2022/09/13 00:45:47;;;;;;;4.63;3.28;;;;;;;;;;5016117;28;20432;-60
2022/09/13 00:48:20;;;;;;;4.90;3.15;;;;;;;;;;5020883;28;20036;-60
2022/09/13 00:50:54;;;;;;;4.40;3.15;;;;;;;;;;5008137;28;20551;-59
2022/09/13 00:53:28;;;;;;;4.45;3.55;;;;;;;;;;5012785;28;20041;-59
2022/09/13 00:56:23;;;;;;;4.45;3.00;;;;;;;;;;5020454;28;20044;-59
2022/09/13 00:58:51;;;;;;;5.72;3.38;;;;;;;;;;5024118;28;20056;-60
2022/09/13 01:01:19;;;;;;;4.75;3.33;;;;;;;;;;4992483;28;20038;-60
2022/09/13 01:03:46;;;;;;;4.47;3.28;;;;;;;;;;5015857;28;20041;-60
2022/09/13 01:06:17;;;;;;;5.72;3.40;;;;;;;;;;5020401;28;20044;-60
2022/09/13 01:08:45;;;;;;;4.40;3.45;;;;;;;;;;5015088;28;20762;-60
2022/09/13 01:11:29;;;;;;;6.85;3.33;;;;;;;;;;5006059;28;20040;-60
2022/09/13 01:13:57;;;;;;;5.63;3.50;;;;;;;;;;5008829;28;20042;-60
2022/09/13 01:16:22;;;;;;;5.50;3.42;;;;;;;;;;4999282;28;20029;-60
2022/09/13 01:18:48;;;;;;;7.13;3.55;;;;;;;;;;5012520;28;20423;-60
2022/09/13 01:21:51;;;;;;;6.38;3.40;;;;;;;;;;5015625;28;20048;-60
2022/09/13 01:24:41;;;;;;;4.82;3.40;;;;;;;;;;5010680;28;20032;-60
2022/09/13 01:27:27;;;;;;;5.93;3.58;;;;;;;;;;5019218;28;20041;-60
2022/09/13 01:30:05;;;;;;;4.93;3.55;;;;;;;;;;5025135;28;20041;-60
2022/09/13 01:32:56;;;;;;;5.38;3.38;;;;;;;;;;5011217;28;20056;-60
2022/09/13 01:35:40;;;;;;;4.50;3.45;;;;;;;;;;5011432;28;20376;-60
2022/09/13 01:38:11;;;;;;;5.07;3.35;;;;;;;;;;5012635;28;20069;-60
2022/09/13 01:40:48;;;;;;;4.97;3.50;;;;;;;;;;5025195;28;20043;-60
2022/09/13 01:43:49;;;;;;;5.45;3.50;;;;;;;;;;5025514;28;20200;-61
2022/09/13 01:46:25;;;;;;;4.97;3.60;;;;;;;;;;5009249;28;20054;-60
2022/09/13 01:48:53;;;;;;;6.13;3.88;;;;;;;;;;5018894;28;20034;-60
2022/09/13 01:51:35;;;;;;;5.53;3.42;;;;;;;;;;5010128;28;20041;-61
2022/09/13 01:54:38;;;;;;;6.15;3.75;;;;;;;;;;5006703;28;20040;-60
2022/09/13 01:57:20;;;;;;;4.95;3.50;;;;;;;;;;5017255;28;20093;-61
2022/09/13 01:59:51;;;;;;;4.90;3.75;;;;;;;;;;5004040;28;20302;-60
2022/09/13 02:02:16;;;;;;;5.70;4.10;;;;;;;;;;5010513;28;20036;-60
2022/09/13 02:04:46;;;;;;;7.28;3.97;;;;;;;;;;5032203;28;20439;-60
2022/09/13 02:07:20;;;;;;;5.38;3.75;;;;;;;;;;5016348;28;20445;-60
2022/09/13 02:10:09;;;;;;;8.05;4.18;;;;;;;;;;5022056;28;20687;-60
2022/09/13 02:12:38;;;;;;;6.45;4.18;;;;;;;;;;5007024;28;20578;-60
2022/09/13 02:15:08;;;;;;;8.07;4.20;;;;;;;;;;5015129;28;20399;-60
2022/09/13 02:17:40;;;;;;;7.57;4.30;;;;;;;;;;5012446;28;20096;-60
2022/09/13 02:20:19;;;;;;;5.75;3.80;;;;;;;;;;5022140;28;20366;-60
2022/09/13 02:22:52;;;;;;;5.30;3.53;;;;;;;;;;5010295;28;20127;-60
2022/09/13 02:25:20;;;;;;;5.90;3.90;;;;;;;;;;5018367;28;20030;-60
2022/09/13 02:27:49;;;;;;;5.15;3.65;;;;;;;;;;5014105;28;20360;-60
2022/09/13 02:30:14;;;;;;;5.65;3.88;;;;;;;;;;5030452;28;20537;-61
2022/09/13 02:32:55;;;;;;;7.22;3.80;;;;;;;;;;5025811;28;20109;-60
2022/09/13 02:35:23;;;;;;;5.45;3.88;;;;;;;;;;5016490;28;20180;-60
2022/09/13 02:37:57;;;;;;;6.55;4.05;;;;;;;;;;5014816;28;20037;-60
2022/09/13 02:40:26;;;;;;;5.45;3.63;;;;;;;;;;5026168;28;20490;-60
2022/09/13 02:42:57;;;;;;;5.78;3.97;;;;;;;;;;5018472;28;20168;-60
2022/09/13 02:45:32;;;;;;;7.30;4.15;;;;;;;;;;5027151;28;20045;-60
2022/09/13 02:48:09;;;;;;;7.25;4.45;;;;;;;;;;5020985;28;20104;-60
2022/09/13 02:50:49;;;;;;;5.88;4.18;;;;;;;;;;5013887;28;20042;-61
2022/09/13 02:53:24;;;;;;;5.85;4.40;;;;;;;;;;5010551;28;20478;-60
2022/09/13 02:56:06;;;;;;;7.07;4.15;;;;;;;;;;5011794;28;20064;-60
2022/09/13 02:58:45;;;;;;;6.20;4.32;;;;;;;;;;5008021;28;20037;-61
2022/09/13 03:01:11;;;;;;;7.05;4.30;;;;;;;;;;5015013;28;20120;-60
2022/09/13 03:03:36;;;;;;;4.97;4.00;;;;;;;;;;5009340;28;20049;-60
2022/09/13 03:06:02;;;;;;;6.25;4.30;;;;;;;;;;5015493;28;20033;-60
2022/09/13 03:08:28;;;;;;;5.68;4.22;;;;;;;;;;5020057;28;20037;-60
2022/09/13 03:11:09;;;;;;;6.05;4.43;;;;;;;;;;5001720;28;20201;-59
2022/09/13 03:13:52;;;;;;;7.50;4.43;;;;;;;;;;5022561;28;20061;-60
2022/09/13 03:16:32;;;;;;;6.50;4.30;;;;;;;;;;5018390;28;20041;-60
2022/09/13 03:19:28;;;;;;;6.00;4.28;;;;;;;;;;5017236;28;20042;-59
2022/09/13 03:21:53;;;;;;;8.05;4.38;;;;;;;;;;5026236;28;20030;-60
2022/09/13 03:24:22;;;;;;;7.65;4.60;;;;;;;;;;5025901;28;20389;-60
2022/09/13 03:26:47;;;;;;;10.32;4.80;;;;;;;;;;5007425;28;20031;-60
2022/09/13 03:29:32;;;;;;;9.27;5.35;;;;;;;;;;5021419;28;20037;-60
2022/09/13 03:32:12;;;;;;;6.43;4.40;;;;;;;;;;5018446;28;20148;-60
2022/09/13 03:34:44;;;;;;;7.88;5.22;;;;;;;;;;5030257;28;20037;-60
2022/09/13 03:37:32;;;;;;;7.78;5.03;;;;;;;;;;5012700;28;20038;-60
2022/09/13 03:40:12;;;;;;;6.88;5.05;;;;;;;;;;5025094;28;20390;-60
2022/09/13 03:42:55;;;;;;;6.82;5.30;;;;;;;;;;5015963;28;20455;-60
2022/09/13 03:45:26;;;;;;;8.38;5.57;;;;;;;;;;5016877;28;20048;-60
2022/09/13 03:47:53;;;;;;;7.07;4.88;;;;;;;;;;5012327;28;20033;-60
2022/09/13 03:50:21;;;;;;;7.43;5.40;;;;;;;;;;4999058;28;20416;-60
2022/09/13 03:52:50;;;;;;;9.18;5.38;;;;;;;;;;5008123;28;20042;-60
2022/09/13 03:55:19;;;;;;;6.45;5.00;;;;;;;;;;5027150;28;20033;-60
2022/09/13 03:57:44;;;;;;;6.95;5.18;;;;;;;;;;5016673;28;20119;-60
2022/09/13 04:00:13;;;;;;;7.28;4.97;;;;;;;;;;5009450;28;20038;-60
2022/09/13 04:02:38;;;;;;;9.68;5.20;;;;;;;;;;5014088;28;20032;-60
2022/09/13 04:05:04;;;;;;;7.35;4.75;;;;;;;;;;5023217;28;20033;-60
2022/09/13 04:07:30;;;;;;;6.10;4.60;;;;;;;;;;5007177;28;20034;-60
2022/09/13 04:09:55;;;;;;;7.55;5.00;;;;;;;;;;5022820;28;20037;-60
2022/09/13 04:12:21;;;;;;;7.35;4.63;;;;;;;;;;4993128;28;20108;-60
2022/09/13 04:14:46;;;;;;;6.65;4.72;;;;;;;;;;5018980;28;20079;-60
2022/09/13 04:17:12;;;;;;;13.88;8.40;;;;;;;;;;5010118;28;20030;-60
2022/09/13 04:19:39;;;;;;;9.00;5.22;;;;;;;;;;5014124;28;20096;-60
2022/09/13 04:22:04;;;;;;;8.13;4.82;;;;;;;;;;5015898;28;20045;-60
2022/09/13 04:24:30;;;;;;;8.00;4.90;;;;;;;;;;5028185;28;20037;-60
2022/09/13 04:26:56;;;;;;;6.88;4.70;;;;;;;;;;5008964;28;20120;-59
2022/09/13 04:29:24;;;;;;;6.47;4.72;;;;;;;;;;5021665;28;20038;-59
2022/09/13 04:31:52;;;;;;;5.82;4.47;;;;;;;;;;5020673;28;20394;-59
2022/09/13 04:34:17;;;;;;;6.80;4.40;;;;;;;;;;5007525;28;20391;-59
2022/09/13 04:36:44;;;;;;;6.70;4.28;;;;;;;;;;5014844;28;20030;-60
2022/09/13 04:39:09;;;;;;;7.60;4.80;;;;;;;;;;5023927;28;20034;-60
2022/09/13 04:41:35;;;;;;;7.55;4.50;;;;;;;;;;5022011;28;20479;-60
2022/09/13 04:44:01;;;;;;;8.95;4.55;;;;;;;;;;5016214;28;20060;-59
2022/09/13 04:46:27;;;;;;;6.28;4.40;;;;;;;;;;4999075;28;20372;-60
2022/09/13 04:48:52;;;;;;;8.07;5.22;;;;;;;;;;5026014;28;20044;-60
2022/09/13 04:51:18;;;;;;;8.63;4.68;;;;;;;;;;4999633;28;20041;-60
2022/09/13 04:53:44;;;;;;;7.43;4.47;;;;;;;;;;5007002;28;20021;-60
2022/09/13 04:56:12;;;;;;;8.27;4.75;;;;;;;;;;5014605;28;20064;-60
2022/09/13 04:58:38;;;;;;;9.00;4.82;;;;;;;;;;5030735;28;20033;-60
2022/09/13 05:01:06;;;;;;;8.10;4.78;;;;;;;;;;5009223;28;20026;-60
2022/09/13 05:03:33;;;;;;;8.20;4.88;;;;;;;;;;5026861;28;20029;-60
2022/09/13 05:06:02;;;;;;;6.78;4.60;;;;;;;;;;5021790;28;20030;-59
2022/09/13 05:08:28;;;;;;;5.90;4.75;;;;;;;;;;5012264;28;20479;-60
2022/09/13 05:10:53;;;;;;;10.15;5.50;;;;;;;;;;5026752;28;20037;-60
2022/09/13 05:13:18;;;;;;;7.72;4.97;;;;;;;;;;5012664;28;20058;-60
2022/09/13 05:15:44;;;;;;;7.63;4.88;;;;;;;;;;5012962;28;20073;-61
2022/09/13 05:18:09;;;;;;;7.72;5.30;;;;;;;;;;5020618;28;20049;-61
2022/09/13 05:20:34;;;;;;;8.38;5.35;;;;;;;;;;5018995;28;20113;-60
2022/09/13 05:23:00;;;;;;;8.70;5.20;;;;;;;;;;5010446;28;20033;-60
2022/09/13 05:25:25;;;;;;;7.85;5.10;;;;;;;;;;5020900;28;20042;-60
2022/09/13 05:27:50;;;;;;;8.07;5.28;;;;;;;;;;5012781;28;20120;-60
2022/09/13 05:30:16;;;;;;;8.93;4.97;;;;;;;;;;5010397;28;20464;-60
2022/09/13 05:32:41;;;;;;;7.00;5.07;;;;;;;;;;5004812;28;20399;-60
2022/09/13 05:35:08;;;;;;;7.82;4.88;;;;;;;;;;5005380;28;20069;-60
2022/09/13 05:37:33;;;;;;;10.85;4.80;;;;;;;;;;5000698;28;20038;-60
2022/09/13 05:39:59;;;;;;;8.43;4.63;;;;;;;;;;5013256;28;20037;-60
2022/09/13 05:42:24;;;;;;;7.95;4.65;;;;;;;;;;5014709;28;20042;-60
2022/09/13 05:44:49;;;;;;;7.68;4.47;;;;;;;;;;5018601;28;20049;-60
2022/09/13 05:47:16;;;;;;;8.32;4.68;;;;;;;;;;5016853;28;20030;-61
2022/09/13 05:49:41;;;;;;;8.88;4.50;;;;;;;;;;5026639;28;20036;-61
2022/09/13 05:52:06;;;;;;;8.73;4.50;;;;;;;;;;5034172;28;20029;-61
2022/09/13 05:54:33;;;;;;;8.75;4.40;;;;;;;;;;5020908;28;20034;-60
2022/09/13 05:56:58;;;;;;;6.93;4.22;;;;;;;;;;5013000;28;20026;-62
2022/09/13 05:59:24;;;;;;;10.68;4.60;;;;;;;;;;5020175;28;20037;-61
2022/09/13 06:01:49;;;;;;;8.65;4.60;;;;;;;;;;5025447;28;20061;-61
2022/09/13 06:04:14;;;;;;;7.53;4.57;;;;;;;;;;5029639;28;20036;-61
2022/09/13 06:06:40;;;;;;;11.30;4.95;;;;;;;;;;5015527;28;20042;-65
2022/09/13 06:09:07;;;;;;;6.22;4.78;;;;;;;;;;5017793;28;20034;-65
2022/09/13 06:11:33;;;;;;;10.15;4.72;;;;;;;;;;5014044;28;20080;-64
2022/09/13 06:13:58;;;;;;;7.43;4.75;;;;;;;;;;5011929;28;20045;-65
2022/09/13 06:16:23;;;;;;;10.13;4.45;;;;;;;;;;5006666;28;20121;-66
2022/09/13 06:18:49;;;;;;;8.48;4.43;;;;;;;;;;5031072;28;20045;-65
2022/09/13 06:21:18;;;;;;;6.95;3.78;;;;;;;;;;5026722;28;20033;-65
2022/09/13 06:23:47;;;;;;;9.40;4.15;;;;;;;;;;5008090;28;20045;-65
2022/09/13 06:26:15;;;;;;;10.07;4.28;;;;;;;;;;5013271;28;20060;-64
2022/09/13 06:28:41;;;;;;;8.80;4.13;;;;;;;;;;5011189;28;20587;-65
2022/09/13 06:31:12;;;;;;;6.55;4.20;;;;;;;;;;5007115;28;20030;-65
2022/09/13 06:33:39;;;;;;;9.23;4.35;;;;;;;;;;4998389;28;20034;-65
2022/09/13 06:36:11;;;;;;;8.18;4.30;;;;;;;;;;5008136;28;20038;-63
2022/09/13 06:38:38;;;;;;;6.60;4.70;;;;;;;;;;5014404;28;20075;-66
2022/09/13 06:41:09;;;;;;;8.38;4.53;;;;;;;;;;5031265;28;20505;-64
2022/09/13 06:43:35;;;;;;;9.82;4.30;;;;;;;;;;5030567;28;20087;-65
2022/09/13 06:46:05;;;;;;;10.25;4.47;;;;;;;;;;5030344;28;20659;-63
2022/09/13 06:48:36;;;;;;;10.27;4.50;;;;;;;;;;5022596;28;20074;-64
2022/09/13 06:51:02;;;;;;;;;;;;;;;;;;5000555;28;20326;-61
2022/09/13 06:53:28;;;;;;;9.40;4.40;;;;;;;;;;5010955;28;20373;-62
2022/09/13 06:56:03;;;;;;;10.02;4.57;;;;;;;;;;5021613;28;20040;-63
2022/09/13 06:58:30;;;;;;;10.98;5.18;;;;;;;;;;5017803;28;20033;-62
2022/09/13 07:01:11;;;;;;;10.10;4.95;;;;;;;;;;5012203;28;20033;-62
2022/09/13 07:03:42;;;;;;;8.05;4.50;;;;;;;;;;5015456;28;20045;-61
2022/09/13 07:06:29;;;;;;;7.68;4.40;;;;;;;;;;5032792;28;20364;-62
2022/09/13 07:08:57;;;;;;;13.80;5.10;;;;;;;;;;4998796;28;20042;-62
2022/09/13 07:11:25;;;;;;;12.38;4.30;;;;;;;;;;4992878;28;20193;-62
2022/09/13 07:13:53;;;;;;;9.75;4.47;;;;;;;;;;5024269;28;20061;-62
2022/09/13 07:16:20;;;;;;;10.93;4.43;;;;;;;;;;5031529;28;20042;-62
2022/09/13 07:18:57;;;;;;;8.70;4.90;;;;;;;;;;5011650;28;20490;-62
2022/09/13 07:21:23;;;;;;;10.45;4.75;;;;;;;;;;5017461;28;20116;-61
2022/09/13 07:23:50;;;;;;;8.70;4.60;;;;;;;;;;5025190;28;21384;-61
2022/09/13 07:26:16;;;;;;;8.35;4.60;;;;;;;;;;5025474;28;20120;-61
2022/09/13 07:28:45;;;;;;;10.38;4.45;;;;;;;;;;5015137;28;20165;-61
2022/09/13 07:31:15;;;;;;;13.50;4.85;;;;;;;;;;5015277;28;20489;-61
2022/09/13 07:33:41;;;;;;;11.17;4.53;;;;;;;;;;5011172;28;20026;-61
2022/09/13 07:36:08;;;;;;;13.70;4.70;;;;;;;;;;5026432;28;20386;-60
2022/09/13 07:38:35;;;;;;;8.55;4.70;;;;;;;;;;5014770;28;20473;-60
2022/09/13 07:41:01;;;;;;;9.65;4.93;;;;;;;;;;5013685;28;20030;-61
2022/09/13 07:43:27;;;;;;;7.95;4.38;;;;;;;;;;5020028;28;20030;-61
2022/09/13 07:46:04;;;;;;;9.77;4.95;;;;;;;;;;5032024;28;20033;-62
2022/09/13 07:48:31;;;;;;;10.00;4.90;;;;;;;;;;5028459;28;20453;-61
2022/09/13 07:50:59;;;;;;;13.38;5.28;;;;;;;;;;5016851;28;20021;-60
2022/09/13 07:53:24;;;;;;;10.32;5.22;;;;;;;;;;5032100;28;20530;-60
2022/09/13 07:55:50;;;;;;;14.30;5.68;;;;;;;;;;5030234;28;20137;-62
2022/09/13 07:58:15;;;;;;;12.98;5.18;;;;;;;;;;5011424;28;20367;-61
2022/09/13 08:00:40;;;;;;;11.75;5.28;;;;;;;;;;5008901;28;20037;-61
2022/09/13 08:03:07;;;;;;;11.00;5.20;;;;;;;;;;5014560;28;20038;-60
2022/09/13 08:05:38;;;;;;;10.32;5.38;;;;;;;;;;5013906;28;20080;-60
2022/09/13 08:08:03;;;;;;;13.70;5.55;;;;;;;;;;5027518;28;20033;-60
2022/09/13 08:10:29;;;;;;;11.50;5.15;;;;;;;;;;5028935;28;20033;-61
2022/09/13 08:12:54;;;;;;;10.15;5.18;;;;;;;;;;5028706;28;20033;-62
2022/09/13 08:15:19;;;;;;;10.57;5.28;;;;;;;;;;5018706;28;20065;-61
2022/09/13 08:17:45;;;;;;;12.18;5.75;;;;;;;;;;5020884;28;20368;-60
2022/09/13 08:20:10;;;;;;;10.93;6.38;;;;;;;;;;5011737;28;20069;-61
2022/09/13 08:22:35;;;;;;;10.98;6.20;;;;;;;;;;5025896;28;20033;-63
2022/09/13 08:25:01;;;;;;;11.57;6.25;;;;;;;;;;5030425;28;20036;-62
2022/09/13 08:27:27;;;;;;;11.50;5.95;;;;;;;;;;5017982;28;20076;-62
2022/09/13 08:29:52;;;;;;;12.32;6.50;;;;;;;;;;5020152;28;20037;-61
2022/09/13 08:32:18;;;;;;;12.10;6.18;;;;;;;;;;5018516;28;20065;-61
2022/09/13 08:34:43;;;;;;;11.25;5.95;;;;;;;;;;5010026;28;20038;-60
2022/09/13 08:37:09;;;;;;;9.95;6.00;;;;;;;;;;5014672;28;20037;-62
2022/09/13 08:39:34;;;;;;;11.13;6.28;;;;;;;;;;5016930;28;20037;-62
2022/09/13 08:42:18;;;;;;;11.63;6.25;;;;;;;;;;5016881;28;20037;-60
2022/09/13 08:44:48;;;;;;;9.70;6.05;;;;;;;;;;5018970;28;20037;-61
2022/09/13 08:47:30;;;;;;;13.00;6.50;;;;;;;;;;5031511;28;20025;-60
2022/09/13 08:50:12;;;;;;;11.43;6.43;;;;;;;;;;5027197;28;20485;-61
2022/09/13 08:52:51;;;;;;;12.63;6.45;;;;;;;;;;5012953;28;20034;-61
2022/09/13 08:55:25;;;;;;;10.23;6.28;;;;;;;;;;5025255;28;20087;-61
2022/09/13 08:58:17;;;;;;;12.45;6.82;;;;;;;;;;5030544;28;20048;-61
2022/09/13 09:00:50;;;;;;;11.15;6.60;;;;;;;;;;5027108;28;20521;-60
2022/09/13 09:03:39;;;;;;;14.98;6.28;;;;;;;;;;5009944;28;20038;-60
2022/09/13 09:06:12;;;;;;;12.82;6.82;;;;;;;;;;5005705;28;20046;-61
2022/09/13 09:08:52;;;;;;;12.43;7.18;;;;;;;;;;4995221;28;20505;-61
2022/09/13 09:11:30;;;;;;;11.57;6.72;;;;;;;;;;5025430;28;20026;-61
2022/09/13 09:14:19;;;;;;;12.00;6.60;;;;;;;;;;5023565;28;20037;-62
2022/09/13 09:16:53;;;;;;;15.85;7.05;;;;;;;;;;5028196;28;20044;-61
2022/09/13 09:19:26;;;;;;;12.27;7.55;;;;;;;;;;5029005;28;20061;-61
2022/09/13 09:21:51;;;;;;;12.07;6.70;;;;;;;;;;5008847;28;20399;-62
2022/09/13 09:24:23;;;;;;;10.52;7.47;;;;;;;;;;5006650;28;20030;-61
2022/09/13 09:26:49;;;;;;;12.35;7.70;;;;;;;;;;5025557;28;20045;-62
2022/09/13 09:29:24;;;;;;;12.40;7.47;;;;;;;;;;5011164;28;20026;-61
2022/09/13 09:32:18;;;;;;;10.25;7.53;;;;;;;;;;5016252;28;20030;-63
2022/09/13 09:34:56;;;;;;;12.05;7.47;;;;;;;;;;4993706;28;20084;-62
2022/09/13 09:37:27;;;;;;;12.13;7.20;;;;;;;;;;5011028;28;20045;-61
2022/09/13 09:39:57;;;;;;;10.30;7.18;;;;;;;;;;5011020;28;20041;-62
2022/09/13 09:42:29;;;;;;;13.48;7.40;;;;;;;;;;5003140;28;20026;-62
2022/09/13 09:45:05;;;;;;;12.35;7.00;;;;;;;;;;5005321;28;20120;-62
2022/09/13 09:47:48;;;;;;;12.52;7.22;;;;;;;;;;5034746;28;20079;-61
2022/09/13 09:50:29;;;;;;;13.15;7.22;;;;;;;;;;5028916;28;20111;-64
2022/09/13 09:53:19;;;;;;;15.60;7.38;;;;;;;;;;5013910;28;20037;-68
2022/09/13 09:55:50;;;;;;;10.43;6.72;;;;;;;;;;5014179;28;20038;-71
2022/09/13 09:58:17;;;;;;;13.25;6.95;;;;;;;;;;5012200;28;20029;-71
2022/09/13 10:00:57;;;;;;;11.38;6.07;;;;;;;;;;4993800;28;20034;-70
2022/09/13 10:03:31;;;;;;;11.68;6.00;;;;;;;;;;5009736;28;20061;-68
2022/09/13 10:06:20;;;;;;;8.70;6.30;;;;;;;;;;5013682;28;20072;-68
2022/09/13 10:08:59;;;;;;;12.07;7.15;;;;;;;;;;5022187;28;20037;-69
2022/09/13 10:11:42;;;;;;;11.23;7.05;;;;;;;;;;5024950;28;20108;-69
2022/09/13 10:14:29;;;;;;;11.65;6.80;;;;;;;;;;5010791;28;20058;-69
2022/09/13 10:17:04;;;;;;;11.02;7.65;;;;;;;;;;4993701;28;20022;-70
2022/09/13 10:19:31;;;;;;;13.85;7.95;;;;;;;;;;5026146;28;20426;-71
2022/09/13 10:22:11;;;;;;;15.70;9.07;;;;;;;;;;5025947;28;20597;-69
2022/09/13 10:24:37;;;;;;;12.73;8.40;;;;;;;;;;5008052;28;20034;-69
2022/09/13 10:27:04;;;;;;;14.13;8.60;;;;;;;;;;4993325;28;20214;-68
2022/09/13 10:29:31;;;;;;;15.95;8.27;;;;;;;;;;5022612;28;20398;-69
2022/09/13 10:31:57;;;;;;;12.85;9.40;;;;;;;;;;5017222;28;20030;-68
2022/09/13 10:34:34;;;;;;;14.38;9.00;;;;;;;;;;5012798;28;20036;-68
2022/09/13 10:37:29;;;;;;;12.43;8.48;;;;;;;;;;5011814;28;20096;-69
2022/09/13 10:40:11;;;;;;;14.32;9.25;;;;;;;;;;5012810;28;20421;-68
2022/09/13 10:42:37;;;;;;;15.65;9.10;;;;;;;;;;5017685;28;20033;-67
2022/09/13 10:45:05;;;;;;;12.90;8.98;;;;;;;;;;5032445;28;20257;-69
2022/09/13 10:47:34;;;;;;;14.80;8.10;;;;;;;;;;5025642;28;20069;-68
2022/09/13 10:50:22;;;;;;;12.25;8.30;;;;;;;;;;5002586;28;20041;-67
2022/09/13 10:52:53;;;;;;;14.77;8.75;;;;;;;;;;5010130;28;20454;-71
2022/09/13 10:55:19;;;;;;;11.23;8.13;;;;;;;;;;5013188;28;20033;-71
2022/09/13 10:57:53;;;;;;;13.07;8.73;;;;;;;;;;5009619;28;20033;-68
2022/09/13 11:00:20;;;;;;;15.45;8.63;;;;;;;;;;5002402;28;20037;-73
2022/09/13 11:03:19;;;;;;;12.15;9.13;;;;;;;;;;4998649;28;20130;-70
2022/09/13 11:06:04;;;;;;;12.90;9.30;;;;;;;;;;5010535;28;20040;-69
2022/09/13 11:08:49;;;;;;;13.35;8.40;;;;;;;;;;5032997;28;20045;-73
2022/09/13 11:11:32;;;;;;;14.20;9.65;;;;;;;;;;5030515;28;20029;-71
2022/09/13 11:14:04;;;;;;;13.98;9.20;;;;;;;;;;5010703;28;20037;-73
2022/09/13 11:16:42;;;;;;;13.50;9.43;;;;;;;;;;5024491;28;20026;-72
2022/09/13 11:19:55;;;;;;;11.38;8.90;;;;;;;;;;5031880;28;20102;-70
2022/09/13 11:22:48;;;;;;;13.02;9.68;;;;;;;;;;4979579;28;20062;-72
2022/09/13 11:25:35;;;;;;;13.82;8.90;;;;;;;;;;5012408;28;20513;-76
2022/09/13 11:28:06;;;;;;;11.93;8.35;;;;;;;;;;5031569;28;20033;-73
2022/09/13 11:30:44;;;;;;;12.52;7.32;;;;;;;;;;5028495;28;20093;-71
2022/09/13 11:33:29;;;;;;;11.32;7.93;;;;;;;;;;5016304;28;20108;-73
2022/09/13 11:36:36;;;;;;;12.77;9.02;;;;;;;;;;5027678;28;20045;-70
2022/09/13 11:39:22;;;;;;;12.48;8.88;;;;;;;;;;5000538;28;20052;-71
2022/09/13 11:42:05;;;;;;;14.65;7.82;;;;;;;;;;4996033;28;20043;-69
2022/09/13 11:44:55;;;;;;;11.73;8.00;;;;;;;;;;5032182;28;20461;-70
2022/09/13 11:47:33;;;;;;;10.55;7.10;;;;;;;;;;5024327;28;20544;-76
2022/09/13 11:50:47;;;;;;;10.65;7.25;;;;;;;;;;5019709;28;20041;-73
2022/09/13 11:53:42;;;;;;;11.07;7.80;;;;;;;;;;5013015;28;20041;-70
2022/09/13 11:56:17;;;;;;;11.38;7.18;;;;;;;;;;5021119;28;20026;-78
2022/09/13 11:58:51;;;;;;;11.88;7.63;;;;;;;;;;5006788;28;20112;-72
2022/09/13 12:01:24;;;;;;;12.25;7.60;;;;;;;;;;5016511;28;20108;-72
2022/09/13 12:03:59;;;;;;;11.30;8.48;;;;;;;;;;5030835;28;20040;-71
2022/09/13 12:06:34;;;;;;;10.88;8.50;;;;;;;;;;5028017;28;20526;-72
2022/09/13 12:09:10;;;;;;;9.65;8.07;;;;;;;;;;5011814;28;20490;-68
2022/09/13 12:11:44;;;;;;;11.35;7.90;;;;;;;;;;4991941;28;20061;-69
2022/09/13 12:14:15;;;;;;;13.73;8.93;;;;;;;;;;5011652;28;20030;-72
2022/09/13 12:16:47;;;;;;;13.60;8.85;;;;;;;;;;5031536;28;20025;-75
2022/09/13 12:19:20;;;;;;;14.82;10.40;;;;;;;;;;5026421;28;20053;-79
2022/09/13 12:21:48;;;;;;;13.00;9.45;;;;;;;;;;5030612;28;20065;-71
2022/09/13 12:24:19;;;;;;;13.95;8.48;;;;;;;;;;5026061;28;20112;-70
2022/09/13 12:26:53;;;;;;;10.85;9.25;;;;;;;;;;5031279;28;20036;-68
2022/09/13 12:29:49;;;;;;;18.92;9.68;;;;;;;;;;5026170;28;20033;-69
2022/09/13 12:32:16;;;;;;;13.13;9.80;;;;;;;;;;5015346;28;20482;-74
2022/09/13 12:34:53;;;;;;;11.88;9.82;;;;;;;;;;5030611;28;20030;-73
2022/09/13 12:37:27;;;;;;;14.30;9.90;;;;;;;;;;5029259;28;20044;-78
2022/09/13 12:39:55;;;;;;;13.68;9.57;;;;;;;;;;5022988;28;20037;-72
2022/09/13 12:42:45;;;;;;;12.70;10.52;;;;;;;;;;5007644;28;20120;-76
2022/09/13 12:45:29;;;;;;;13.25;9.60;;;;;;;;;;5011280;28;20034;-73
2022/09/13 12:48:13;;;;;;;10.57;8.55;;;;;;;;;;4999662;28;20030;-70
2022/09/13 12:50:47;;;;;;;10.43;8.05;;;;;;;;;;5001955;28;20034;-79
2022/09/13 12:53:42;;;;;;;13.60;7.90;;;;;;;;;;5011213;28;20034;-73
2022/09/13 12:56:25;;;;;;;11.63;8.38;;;;;;;;;;5005039;28;20500;-76
2022/09/13 12:59:17;;;;;;;11.90;8.77;;;;;;;;;;5009652;28;20097;-73
2022/09/13 13:01:48;;;;;;;14.00;9.52;;;;;;;;;;5018554;28;20029;-76
2022/09/13 13:04:22;;;;;;;12.15;8.20;;;;;;;;;;5022336;28;20109;-75
2022/09/13 13:06:57;;;;;;;12.30;8.43;;;;;;;;;;5022176;28;20036;-67
2022/09/13 13:09:31;;;;;;;10.48;7.03;;;;;;;;;;5027719;28;20045;-73
2022/09/13 13:11:57;;;;;;;9.77;7.05;;;;;;;;;;5021682;28;20029;-76
2022/09/13 13:14:37;;;;;;;11.55;7.60;;;;;;;;;;5026004;28;20034;-71
2022/09/13 13:17:34;;;;;;;8.20;6.45;;;;;;;;;;5013044;28;20053;-70
2022/09/13 13:20:21;;;;;;;10.20;6.15;;;;;;;;;;5019576;28;20478;-66
2022/09/13 13:22:51;;;;;;;10.50;6.68;;;;;;;;;;4989005;28;20487;-69
2022/09/13 13:25:37;;;;;;;8.88;6.63;;;;;;;;;;5030591;28;20041;-70
2022/09/13 13:28:41;;;;;;;12.10;7.25;;;;;;;;;;5034075;28;20030;-70
2022/09/13 13:31:28;;;;;;;9.43;6.72;;;;;;;;;;5012741;28;20227;-68
2022/09/13 13:33:59;;;;;;;8.45;6.13;;;;;;;;;;5005865;28;20046;-70
2022/09/13 13:36:28;;;;;;;13.32;7.63;;;;;;;;;;5027700;28;20052;-71
2022/09/13 13:38:58;;;;;;;10.48;6.53;;;;;;;;;;5027737;28;20026;-69
2022/09/13 13:41:34;;;;;;;;;;;;;;;;;;5014835;28;20080;-68
2022/09/13 13:44:00;;;;;;;10.02;6.22;;;;;;;;;;5022825;28;19925;-68
2022/09/13 13:46:30;;;;;;;9.07;6.75;;;;;;;;;;5029605;28;20108;-71
2022/09/13 13:49:16;;;;;;;;;;;;;;;;;;5031253;28;20075;-69
2022/09/13 13:51:42;;;;;;;7.78;5.88;;;;;;;;;;5029040;28;19925;-71
2022/09/13 13:54:29;;;;;;;8.30;6.00;;;;;;;;;;5030655;28;20033;-73
2022/09/13 13:56:56;;;;;;;8.88;5.72;;;;;;;;;;5029026;28;20033;-70
2022/09/13 13:59:26;;;;;;;11.02;6.88;;;;;;;;;;5029958;28;20375;-70
2022/09/13 14:01:58;;;;;;;10.38;6.95;;;;;;;;;;5032112;28;20033;-68
2022/09/13 14:05:00;;;;;;;9.80;6.70;;;;;;;;;;5028191;28;20029;-68
2022/09/13 14:07:47;;;;;;;9.75;7.20;;;;;;;;;;5030191;28;20034;-71
2022/09/13 14:10:35;;;;;;;10.07;7.30;;;;;;;;;;5032364;28;20069;-69
2022/09/13 14:13:35;;;;;;;11.75;7.60;;;;;;;;;;5003542;28;20042;-69
2022/09/13 14:16:16;;;;;;;8.07;6.57;;;;;;;;;;5011240;28;20491;-70
2022/09/13 14:18:58;;;;;;;10.15;7.22;;;;;;;;;;5013684;28;20061;-70
2022/09/13 14:21:30;;;;;;;9.98;6.90;;;;;;;;;;5018559;28;20120;-70
2022/09/13 14:24:22;;;;;;;8.40;5.90;;;;;;;;;;5029679;28;20052;-70
2022/09/13 14:26:56;;;;;;;9.48;7.43;;;;;;;;;;5031793;28;20036;-71
2022/09/13 14:29:24;;;;;;;9.20;6.35;;;;;;;;;;5026068;28;20068;-68
2022/09/13 14:31:53;;;;;;;8.57;6.05;;;;;;;;;;5016098;28;20034;-70
2022/09/13 14:34:30;;;;;;;9.13;5.70;;;;;;;;;;5015309;28;20037;-69
2022/09/13 14:37:02;;;;;;;10.20;5.40;;;;;;;;;;5030407;28;20095;-68
2022/09/13 14:39:28;;;;;;;9.27;6.07;;;;;;;;;;5030168;28;20041;-68
2022/09/13 14:42:14;;;;;;;8.93;6.10;;;;;;;;;;5024687;28;20037;-69
2022/09/13 14:44:44;;;;;;;10.77;6.50;;;;;;;;;;5017723;28;20060;-68
2022/09/13 14:47:15;;;;;;;9.95;6.43;;;;;;;;;;5011365;28;20034;-70
2022/09/13 14:49:46;;;;;;;10.10;7.32;;;;;;;;;;5018220;28;20103;-69
2022/09/13 14:52:30;;;;;;;10.43;6.55;;;;;;;;;;5029930;28;20057;-68
2022/09/13 14:55:08;;;;;;;9.80;6.40;;;;;;;;;;5030596;28;20048;-69
2022/09/13 14:57:39;;;;;;;9.32;6.55;;;;;;;;;;5028214;28;20091;-68
2022/09/13 15:00:14;;;;;;;11.40;7.35;;;;;;;;;;5017354;28;20099;-68
2022/09/13 15:02:51;;;;;;;10.32;6.38;;;;;;;;;;5021475;28;20072;-67
2022/09/13 15:05:20;;;;;;;11.80;6.82;;;;;;;;;;5011933;28;20041;-65
2022/09/13 15:07:46;;;;;;;9.65;7.03;;;;;;;;;;5017042;28;20217;-65
2022/09/13 15:10:11;;;;;;;10.63;6.80;;;;;;;;;;5027879;28;20040;-65
2022/09/13 15:13:05;;;;;;;7.75;6.00;;;;;;;;;;5031004;28;20067;-65
2022/09/13 15:15:30;;;;;;;10.30;6.30;;;;;;;;;;5015687;28;20038;-64